createdAt,value
2023-02-20T00:00:41.324Z,4.28
2023-02-20T00:03:08.237Z,4.25
2023-02-20T00:05:35.157Z,4.50
2023-02-20T00:08:02.032Z,5.30
2023-02-20T00:10:28.589Z,5.50
2023-02-20T00:12:55.078Z,4.95
2023-02-20T00:15:22.484Z,5.00
2023-02-20T00:17:49.033Z,5.07
2023-02-20T00:20:17.452Z,4.60
2023-02-20T00:22:43.968Z,4.85
2023-02-20T00:25:10.515Z,5.15
2023-02-20T00:27:36.995Z,5.00
2023-02-20T00:30:04.921Z,4.93
2023-02-20T00:32:31.463Z,5.10
2023-02-20T00:35:01.221Z,4.68
2023-02-20T00:37:27.810Z,5.25
2023-02-20T00:39:54.297Z,5.90
2023-02-20T00:42:21.229Z,5.50
2023-02-20T00:44:47.729Z,5.10
2023-02-20T00:47:14.260Z,5.97
2023-02-20T00:49:40.779Z,5.00
2023-02-20T00:52:14.969Z,5.88
2023-02-20T00:54:41.636Z,5.70
2023-02-20T00:57:08.151Z,5.45
2023-02-20T00:59:34.681Z,5.15
2023-02-20T01:02:01.183Z,5.93
2023-02-20T01:04:27.838Z,5.38
2023-02-20T01:06:54.347Z,5.60
2023-02-20T01:09:20.928Z,5.60
2023-02-20T01:11:48.449Z,4.95
2023-02-20T01:14:14.994Z,6.93
2023-02-20T01:16:48.824Z,5.65
2023-02-20T01:19:15.447Z,7.22
2023-02-20T01:21:42.850Z,6.10
2023-02-20T01:24:11.195Z,5.90
2023-02-20T01:26:37.710Z,6.70
2023-02-20T01:29:04.653Z,5.47
2023-02-20T01:31:31.273Z,6.38
2023-02-20T01:33:57.830Z,5.45
2023-02-20T01:36:24.313Z,5.53
2023-02-20T01:38:51.151Z,6.75
2023-02-20T01:41:18.934Z,6.45
2023-02-20T01:43:45.992Z,5.82
2023-02-20T01:46:27.664Z,5.82
2023-02-20T01:49:06.410Z,5.60
2023-02-20T01:51:36.272Z,5.65
2023-02-20T01:54:04.680Z,5.32
2023-02-20T01:56:32.132Z,6.15
2023-02-20T01:58:58.640Z,5.55
2023-02-20T02:01:25.134Z,5.20
2023-02-20T02:03:56.532Z,5.07
2023-02-20T02:06:25.584Z,6.78
2023-02-20T02:08:53.143Z,6.00
2023-02-20T02:11:23.159Z,5.07
2023-02-20T02:13:49.829Z,5.28
2023-02-20T02:16:25.033Z,5.82
2023-02-20T02:19:29.353Z,5.60
2023-02-20T02:22:40.958Z,5.30
2023-02-20T02:25:32.835Z,5.55
2023-02-20T02:28:21.591Z,5.90
2023-02-20T02:31:25.761Z,5.90
2023-02-20T02:34:41.510Z,5.95
2023-02-20T02:37:16.676Z,5.68
2023-02-20T02:39:48.901Z,5.90
2023-02-20T02:42:28.023Z,6.15
2023-02-20T02:45:11.383Z,6.15
2023-02-20T02:47:59.848Z,6.45
2023-02-20T02:50:36.735Z,6.55
2023-02-20T02:53:05.379Z,6.53
2023-02-20T02:55:35.776Z,6.07
2023-02-20T02:58:03.296Z,7.03
2023-02-20T03:00:34.244Z,6.88
2023-02-20T03:03:24.836Z,7.22
2023-02-20T03:06:13.797Z,6.13
2023-02-20T03:08:46.932Z,6.65
2023-02-20T03:11:16.336Z,6.65
2023-02-20T03:14:17.733Z,7.07
2023-02-20T03:16:56.203Z,7.00
2023-02-20T03:19:28.416Z,6.93
2023-02-20T03:21:55.992Z,6.90
2023-02-20T03:24:24.282Z,6.90
2023-02-20T03:26:53.545Z,6.30
2023-02-20T03:29:27.888Z,6.93
2023-02-20T03:32:17.169Z,6.95
2023-02-20T03:35:03.013Z,6.57
2023-02-20T03:37:49.299Z,6.47
2023-02-20T03:40:35.144Z,6.80
2023-02-20T03:43:23.400Z,6.68
2023-02-20T03:45:52.031Z,6.97
2023-02-20T03:48:26.271Z,7.25
2023-02-20T03:50:52.869Z,6.57
2023-02-20T03:53:24.500Z,6.43
2023-02-20T03:55:52.075Z,6.80
2023-02-20T03:58:23.217Z,7.03
2023-02-20T04:00:51.824Z,6.95
2023-02-20T04:03:21.547Z,7.15
2023-02-20T04:05:52.834Z,7.47
2023-02-20T04:09:04.911Z,7.25
2023-02-20T04:11:39.809Z,6.90
2023-02-20T04:14:07.619Z,6.90
2023-02-20T04:16:37.829Z,7.40
2023-02-20T04:19:04.972Z,7.20
2023-02-20T04:21:45.944Z,7.82
2023-02-20T04:24:23.732Z,6.88
2023-02-20T04:26:50.514Z,7.18
2023-02-20T04:29:17.671Z,7.68
2023-02-20T04:31:44.347Z,7.60
2023-02-20T04:34:11.669Z,7.28
2023-02-20T04:36:39.452Z,8.15
2023-02-20T04:39:06.056Z,7.45
2023-02-20T04:41:33.432Z,7.97
2023-02-20T04:44:18.886Z,8.20
2023-02-20T04:46:48.152Z,7.32
2023-02-20T04:49:15.399Z,8.48
2023-02-20T04:51:46.188Z,7.38
2023-02-20T04:54:12.706Z,7.80
2023-02-20T04:56:39.889Z,5.85
2023-02-20T04:59:07.445Z,7.82
2023-02-20T05:01:34.014Z,8.18
2023-02-20T05:04:00.527Z,7.82
2023-02-20T05:06:27.073Z,7.95
2023-02-20T05:08:53.597Z,7.53
2023-02-20T05:11:20.197Z,8.25
2023-02-20T05:13:46.686Z,8.45
2023-02-20T05:16:14.163Z,7.95
2023-02-20T05:18:40.866Z,8.00
2023-02-20T05:21:25.962Z,8.45
2023-02-20T05:23:52.544Z,8.43
2023-02-20T05:26:20.887Z,8.20
2023-02-20T05:28:47.383Z,8.25
2023-02-20T05:31:17.302Z,8.57
2023-02-20T05:33:44.219Z,7.97
2023-02-20T05:36:10.969Z,8.02
2023-02-20T05:38:37.689Z,7.68
2023-02-20T05:41:04.421Z,8.90
2023-02-20T05:43:30.925Z,9.00
2023-02-20T05:45:57.430Z,7.57
2023-02-20T05:48:23.916Z,8.10
2023-02-20T05:50:50.625Z,7.70
2023-02-20T05:53:17.447Z,8.32
2023-02-20T05:55:44.088Z,7.32
2023-02-20T05:58:10.583Z,8.05
2023-02-20T06:00:37.073Z,8.48
2023-02-20T06:03:06.987Z,8.50
2023-02-20T06:05:33.799Z,8.63
2023-02-20T06:08:00.298Z,9.02
2023-02-20T06:10:27.138Z,8.13
2023-02-20T06:12:53.663Z,8.75
2023-02-20T06:15:20.227Z,8.68
2023-02-20T06:17:46.741Z,8.93
2023-02-20T06:20:13.508Z,8.23
2023-02-20T06:22:40.073Z,9.50
2023-02-20T06:25:06.749Z,9.40
2023-02-20T06:27:33.235Z,10.13
2023-02-20T06:29:59.760Z,9.23
2023-02-20T06:32:26.440Z,10.07
2023-02-20T06:34:52.936Z,10.20
2023-02-20T06:37:19.472Z,10.57
2023-02-20T06:39:48.123Z,11.65
2023-02-20T06:42:15.139Z,12.18
2023-02-20T06:44:41.698Z,10.98
2023-02-20T06:47:09.190Z,12.07
2023-02-20T06:49:36.594Z,11.73
2023-02-20T06:52:04.386Z,11.70
2023-02-20T06:54:31.109Z,11.65
2023-02-20T06:56:57.611Z,12.38
2023-02-20T06:59:24.264Z,12.13
2023-02-20T07:01:50.841Z,12.55
2023-02-20T07:04:26.569Z,13.25
2023-02-20T07:06:54.078Z,13.00
2023-02-20T07:09:20.833Z,12.93
2023-02-20T07:11:48.861Z,11.98
2023-02-20T07:14:15.381Z,12.80
2023-02-20T07:16:41.910Z,12.27
2023-02-20T07:19:08.391Z,11.32
2023-02-20T07:21:34.870Z,11.00
2023-02-20T07:24:01.476Z,11.82
2023-02-20T07:26:29.285Z,10.15
2023-02-20T07:28:58.471Z,11.57
2023-02-20T07:31:25.470Z,10.32
2023-02-20T07:33:52.054Z,9.88
2023-02-20T07:36:18.681Z,10.18
2023-02-20T07:38:56.987Z,10.55
2023-02-20T07:41:24.910Z,10.98
2023-02-20T07:43:51.395Z,8.95
2023-02-20T07:46:20.207Z,8.95
2023-02-20T07:48:47.220Z,9.20
2023-02-20T07:51:14.066Z,8.77
2023-02-20T07:53:41.084Z,8.10
2023-02-20T07:56:07.610Z,8.48
2023-02-20T07:58:34.141Z,8.57
2023-02-20T08:01:00.646Z,8.77
2023-02-20T08:03:27.235Z,8.20
2023-02-20T08:05:53.776Z,8.10
2023-02-20T08:08:24.178Z,8.18
2023-02-20T08:10:57.154Z,8.10
2023-02-20T08:13:29.929Z,7.47
2023-02-20T08:15:56.435Z,8.05
2023-02-20T08:18:24.114Z,8.40
2023-02-20T08:20:52.128Z,7.95
2023-02-20T08:23:20.732Z,7.35
2023-02-20T08:25:47.327Z,7.05
2023-02-20T08:28:14.461Z,6.47
2023-02-20T08:30:41.419Z,7.32
2023-02-20T08:33:08.050Z,7.53
2023-02-20T08:35:34.975Z,7.28
2023-02-20T08:38:06.355Z,7.47
2023-02-20T08:40:33.199Z,6.15
2023-02-20T08:42:59.977Z,6.75
2023-02-20T08:45:26.506Z,7.00
2023-02-20T08:47:59.468Z,6.07
2023-02-20T08:50:26.100Z,7.13
2023-02-20T08:52:52.694Z,7.45
2023-02-20T08:55:19.303Z,6.50
2023-02-20T08:57:45.851Z,6.47
2023-02-20T09:00:14.593Z,6.38
2023-02-20T09:02:41.780Z,6.25
2023-02-20T09:05:09.048Z,6.13
2023-02-20T09:07:35.659Z,5.78
2023-02-20T09:10:02.294Z,6.35
2023-02-20T09:12:28.932Z,6.03
2023-02-20T09:14:55.450Z,6.13
2023-02-20T09:17:22.035Z,4.63
2023-02-20T09:19:48.597Z,5.63
2023-02-20T09:22:16.429Z,5.78
2023-02-20T09:24:42.930Z,5.80
2023-02-20T09:27:10.085Z,5.38
2023-02-20T09:29:40.962Z,4.68
2023-02-20T09:32:07.739Z,5.68
2023-02-20T09:34:34.611Z,4.00
2023-02-20T09:37:01.152Z,4.32
2023-02-20T09:39:27.660Z,5.07
2023-02-20T09:42:31.820Z,5.30
2023-02-20T09:45:10.231Z,6.43
2023-02-20T09:47:55.712Z,4.43
2023-02-20T09:50:37.300Z,5.13
2023-02-20T09:53:21.319Z,5.07
2023-02-20T09:55:49.198Z,4.80
2023-02-20T09:58:24.022Z,4.63
2023-02-20T10:00:51.059Z,4.65
2023-02-20T10:03:33.062Z,4.72
2023-02-20T10:06:01.431Z,4.55
2023-02-20T10:08:28.042Z,5.10
2023-02-20T10:10:57.512Z,4.50
2023-02-20T10:13:27.094Z,4.65
2023-02-20T10:16:00.997Z,4.22
2023-02-20T10:18:48.469Z,4.32
2023-02-20T10:21:44.412Z,4.75
2023-02-20T10:24:39.041Z,5.00
2023-02-20T10:27:26.041Z,4.88
2023-02-20T10:29:53.739Z,4.72
2023-02-20T10:32:49.270Z,4.35
2023-02-20T10:35:21.212Z,4.53
2023-02-20T10:37:52.166Z,5.07
2023-02-20T10:40:28.439Z,4.10
2023-02-20T10:43:10.447Z,4.70
2023-02-20T10:45:54.224Z,4.25
2023-02-20T10:48:24.518Z,4.90
2023-02-20T10:51:03.615Z,5.07
2023-02-20T10:53:42.659Z,4.15
2023-02-20T10:56:26.500Z,4.72
2023-02-20T10:59:02.088Z,4.40
2023-02-20T11:01:29.058Z,4.63
2023-02-20T11:04:12.494Z,4.57
2023-02-20T11:06:45.810Z,4.72
2023-02-20T11:09:13.420Z,4.60
2023-02-20T11:11:45.102Z,4.75
2023-02-20T11:14:11.550Z,4.10
2023-02-20T11:16:53.148Z,4.75
2023-02-20T11:19:30.366Z,3.78
2023-02-20T11:21:56.985Z,4.88
2023-02-20T11:24:23.369Z,4.28
2023-02-20T11:26:53.521Z,3.67
2023-02-20T11:29:22.099Z,4.43
2023-02-20T11:31:49.937Z,4.30
2023-02-20T11:34:22.032Z,4.20
2023-02-20T11:36:53.586Z,4.65
2023-02-20T11:39:30.319Z,4.15
2023-02-20T11:42:17.232Z,5.03
2023-02-20T11:44:44.562Z,5.40
2023-02-20T11:47:17.424Z,4.88
2023-02-20T11:49:44.025Z,4.03
2023-02-20T11:52:22.064Z,4.38
2023-02-20T11:55:09.691Z,5.03
2023-02-20T11:57:40.069Z,4.68
2023-02-20T12:00:15.267Z,4.57
2023-02-20T12:02:54.862Z,5.57
2023-02-20T12:05:36.265Z,5.63
2023-02-20T12:08:02.962Z,5.72
2023-02-20T12:10:39.300Z,6.15
2023-02-20T12:13:07.532Z,5.75
2023-02-20T12:15:34.194Z,5.32
2023-02-20T12:18:25.014Z,5.30
2023-02-20T12:21:10.817Z,5.40
2023-02-20T12:24:10.830Z,5.93
2023-02-20T12:26:54.073Z,5.20
2023-02-20T12:29:39.634Z,5.57
2023-02-20T12:32:13.935Z,5.57
2023-02-20T12:34:45.521Z,6.05
2023-02-20T12:37:42.094Z,6.18
2023-02-20T12:40:36.947Z,6.47
2023-02-20T12:43:23.354Z,6.15
2023-02-20T12:46:00.499Z,6.53
2023-02-20T12:48:35.590Z,6.90
2023-02-20T12:51:08.566Z,8.63
2023-02-20T12:53:51.757Z,8.32
2023-02-20T12:56:36.968Z,7.97
2023-02-20T12:59:26.974Z,8.48
2023-02-20T13:01:53.952Z,9.73
2023-02-20T13:04:28.559Z,9.10
2023-02-20T13:07:10.822Z,9.38
2023-02-20T13:09:42.724Z,10.43
2023-02-20T13:12:16.888Z,9.23
2023-02-20T13:14:58.712Z,10.75
2023-02-20T13:17:40.036Z,11.35
2023-02-20T13:20:23.207Z,10.90
2023-02-20T13:23:04.988Z,10.50
2023-02-20T13:25:31.517Z,12.55
2023-02-20T13:28:02.966Z,11.10
2023-02-20T13:30:29.872Z,11.95
2023-02-20T13:33:30.690Z,12.05
2023-02-20T13:35:57.778Z,12.68
2023-02-20T13:38:26.304Z,12.63
2023-02-20T13:40:55.877Z,12.02
2023-02-20T13:43:22.351Z,12.25
2023-02-20T13:46:14.923Z,11.38
2023-02-20T13:48:46.941Z,12.90
2023-02-20T13:51:21.079Z,12.40
2023-02-20T13:54:01.480Z,13.70
2023-02-20T13:56:43.614Z,13.30
2023-02-20T13:59:13.086Z,12.80
2023-02-20T14:02:03.790Z,14.20
2023-02-20T14:04:31.493Z,12.93
2023-02-20T14:06:59.098Z,13.45
2023-02-20T14:09:32.427Z,12.23
2023-02-20T14:12:06.078Z,12.95
2023-02-20T14:14:36.303Z,13.13
2023-02-20T14:17:14.486Z,13.60
2023-02-20T14:19:46.545Z,12.80
2023-02-20T14:22:19.255Z,12.52
2023-02-20T14:24:45.847Z,12.30
2023-02-20T14:27:26.854Z,11.95
2023-02-20T14:30:11.792Z,12.70
2023-02-20T14:32:38.830Z,11.90
2023-02-20T14:35:33.291Z,12.40
2023-02-20T14:38:31.089Z,11.60
2023-02-20T14:40:59.070Z,11.48
2023-02-20T14:43:27.905Z,11.55
2023-02-20T14:46:06.020Z,10.85
2023-02-20T14:48:34.813Z,11.60
2023-02-20T14:51:09.730Z,12.00
2023-02-20T14:53:37.087Z,11.38
2023-02-20T14:56:18.069Z,10.65
2023-02-20T14:58:45.766Z,11.32
2023-02-20T15:01:27.360Z,10.93
2023-02-20T15:04:03.017Z,9.93
2023-02-20T15:06:30.239Z,10.45
2023-02-20T15:08:58.416Z,10.25
2023-02-20T15:11:25.358Z,10.23
2023-02-20T15:13:52.027Z,10.27
2023-02-20T15:16:24.888Z,10.02
2023-02-20T15:18:52.310Z,9.63
2023-02-20T15:21:40.615Z,8.70
2023-02-20T15:24:25.347Z,9.77
2023-02-20T15:26:52.267Z,9.82
2023-02-20T15:29:18.770Z,9.80
2023-02-20T15:32:06.758Z,9.57
2023-02-20T15:34:35.990Z,10.57
2023-02-20T15:37:33.926Z,9.75
2023-02-20T15:40:18.091Z,10.15
2023-02-20T15:42:44.740Z,10.32
2023-02-20T15:45:14.541Z,9.75
2023-02-20T15:47:41.391Z,9.95
2023-02-20T15:50:08.163Z,10.20
2023-02-20T15:52:34.995Z,10.18
2023-02-20T15:55:01.887Z,9.15
2023-02-20T15:57:28.492Z,9.55
2023-02-20T15:59:55.918Z,9.70
2023-02-20T16:02:24.550Z,9.45
2023-02-20T16:04:52.453Z,10.80
2023-02-20T16:07:20.083Z,9.73
2023-02-20T16:09:46.768Z,9.18
2023-02-20T16:12:28.080Z,9.30
2023-02-20T16:14:55.138Z,8.95
2023-02-20T16:17:25.543Z,8.80
2023-02-20T16:19:52.395Z,8.30
2023-02-20T16:22:18.998Z,9.10
2023-02-20T16:24:45.953Z,8.95
2023-02-20T16:27:23.645Z,8.75
2023-02-20T16:29:52.090Z,8.52
2023-02-20T16:32:24.059Z,9.25
2023-02-20T16:34:51.503Z,9.00
2023-02-20T16:37:18.480Z,9.10
2023-02-20T16:39:45.198Z,9.30
2023-02-20T16:42:20.816Z,8.95
2023-02-20T16:44:48.450Z,9.52
2023-02-20T16:47:20.313Z,7.65
2023-02-20T16:49:48.787Z,9.05
2023-02-20T16:52:23.025Z,8.95
2023-02-20T16:54:50.149Z,9.10
2023-02-20T16:57:17.902Z,8.75
2023-02-20T16:59:44.866Z,9.35
2023-02-20T17:02:19.215Z,9.60
2023-02-20T17:04:45.957Z,9.52
2023-02-20T17:07:12.654Z,9.20
2023-02-20T17:09:44.309Z,9.77
2023-02-20T17:12:14.602Z,9.30
2023-02-20T17:14:41.244Z,9.43
2023-02-20T17:17:08.231Z,9.45
2023-02-20T17:19:39.243Z,9.23
2023-02-20T17:22:06.678Z,9.70
2023-02-20T17:24:33.448Z,9.38
2023-02-20T17:27:01.081Z,8.65
2023-02-20T17:29:28.139Z,9.25
2023-02-20T17:31:55.103Z,9.02
2023-02-20T17:34:21.720Z,10.20
2023-02-20T17:36:49.448Z,7.90
2023-02-20T17:39:17.816Z,8.40
2023-02-20T17:41:44.461Z,7.63
2023-02-20T17:44:11.937Z,11.65
2023-02-20T17:46:39.638Z,10.85
2023-02-20T17:49:06.533Z,9.00
2023-02-20T17:51:33.262Z,8.90
2023-02-20T17:53:59.882Z,9.23
2023-02-20T17:56:26.485Z,9.43
2023-02-20T17:58:53.114Z,12.13
2023-02-20T18:01:19.735Z,9.45
2023-02-20T18:03:46.430Z,9.50
2023-02-20T18:06:13.230Z,10.48
2023-02-20T18:08:40.012Z,10.70
2023-02-20T18:11:06.667Z,11.05
2023-02-20T18:13:33.372Z,10.82
2023-02-20T18:16:00.842Z,10.23
2023-02-20T18:18:27.452Z,11.75
2023-02-20T18:20:53.989Z,11.38
2023-02-20T18:23:20.580Z,11.38
2023-02-20T18:25:47.102Z,11.48
2023-02-20T18:28:13.760Z,11.10
2023-02-20T18:30:40.835Z,12.07
2023-02-20T18:33:07.574Z,12.00
2023-02-20T18:35:34.233Z,10.85
2023-02-20T18:38:01.293Z,12.75
2023-02-20T18:40:31.098Z,12.30
2023-02-20T18:42:57.659Z,11.15
2023-02-20T18:45:24.300Z,11.73
2023-02-20T18:47:51.838Z,11.82
2023-02-20T18:50:19.100Z,12.93
2023-02-20T18:52:47.879Z,11.50
2023-02-20T18:55:17.870Z,12.93
2023-02-20T18:57:48.701Z,12.70
2023-02-20T19:00:17.900Z,13.45
2023-02-20T19:02:45.290Z,14.38
2023-02-20T19:05:12.636Z,14.70
2023-02-20T19:07:43.351Z,15.50
2023-02-20T19:10:14.750Z,13.32
2023-02-20T19:12:41.335Z,16.75
2023-02-20T19:15:09.225Z,15.93
2023-02-20T19:17:37.549Z,16.52
2023-02-20T19:20:06.841Z,16.67
2023-02-20T19:22:36.177Z,17.23
2023-02-20T19:25:03.631Z,17.20
2023-02-20T19:27:30.240Z,17.50
2023-02-20T19:29:56.762Z,16.08
2023-02-20T19:32:23.622Z,16.70
2023-02-20T19:34:50.248Z,15.00
2023-02-20T19:37:17.805Z,15.38
2023-02-20T19:39:44.453Z,14.45
2023-02-20T19:42:11.095Z,14.57
2023-02-20T19:44:38.090Z,13.45
2023-02-20T19:47:04.920Z,13.93
2023-02-20T19:49:31.466Z,13.65
2023-02-20T19:51:58.351Z,13.25
2023-02-20T19:54:27.752Z,15.07
2023-02-20T19:57:03.074Z,13.80
2023-02-20T19:59:30.315Z,13.98
2023-02-20T20:01:58.629Z,12.63
2023-02-20T20:04:27.695Z,12.82
2023-02-20T20:06:54.694Z,11.50
2023-02-20T20:09:35.642Z,11.65
2023-02-20T20:12:03.278Z,11.55
2023-02-20T20:14:29.892Z,10.85
2023-02-20T20:16:56.509Z,10.52
2023-02-20T20:19:23.243Z,10.05
2023-02-20T20:21:50.374Z,11.63
2023-02-20T20:24:17.288Z,10.35
2023-02-20T20:26:44.207Z,9.85
2023-02-20T20:29:10.922Z,10.80
2023-02-20T20:31:40.811Z,9.82
2023-02-20T20:34:07.899Z,9.00
2023-02-20T20:36:34.896Z,9.55
2023-02-20T20:39:01.500Z,9.07
2023-02-20T20:41:30.415Z,8.82
2023-02-20T20:44:04.639Z,9.32
2023-02-20T20:46:32.670Z,9.35
2023-02-20T20:48:59.265Z,9.20
2023-02-20T20:51:25.936Z,8.70
2023-02-20T20:53:52.674Z,8.52
2023-02-20T20:56:19.390Z,8.15
2023-02-20T20:58:46.023Z,7.88
2023-02-20T21:01:12.912Z,7.60
2023-02-20T21:03:39.684Z,7.20
2023-02-20T21:06:06.270Z,7.78
2023-02-20T21:08:33.861Z,8.95
2023-02-20T21:11:00.496Z,7.57
2023-02-20T21:13:27.062Z,7.78
2023-02-20T21:15:53.676Z,7.78
2023-02-20T21:18:20.355Z,8.02
2023-02-20T21:20:46.960Z,6.95
2023-02-20T21:23:13.792Z,6.78
2023-02-20T21:25:41.917Z,7.13
2023-02-20T21:28:08.642Z,7.03
2023-02-20T21:30:35.326Z,6.55
2023-02-20T21:33:01.956Z,6.50
2023-02-20T21:35:28.512Z,6.43
2023-02-20T21:37:55.594Z,6.82
2023-02-20T21:40:22.184Z,6.38
2023-02-20T21:43:07.151Z,7.25
2023-02-20T21:45:36.238Z,7.22
2023-02-20T21:48:04.424Z,6.00
2023-02-20T21:50:31.202Z,6.35
2023-02-20T21:52:57.811Z,7.00
2023-02-20T21:55:24.561Z,7.40
2023-02-20T21:57:51.584Z,7.10
2023-02-20T22:00:18.192Z,6.85
2023-02-20T22:02:45.082Z,6.35
2023-02-20T22:05:11.803Z,7.20
2023-02-20T22:07:56.955Z,7.05
2023-02-20T22:10:43.270Z,7.30
2023-02-20T22:13:28.938Z,6.82
2023-02-20T22:16:14.047Z,6.30
2023-02-20T22:18:59.347Z,7.00
2023-02-20T22:21:44.408Z,6.50
2023-02-20T22:24:38.299Z,6.70
2023-02-20T22:27:27.691Z,7.00
2023-02-20T22:30:13.546Z,6.40
2023-02-20T22:32:58.929Z,6.50
2023-02-20T22:35:44.193Z,5.95
2023-02-20T22:38:29.475Z,6.22
2023-02-20T22:41:14.766Z,6.10
2023-02-20T22:43:59.800Z,6.68
2023-02-20T22:46:44.622Z,6.72
2023-02-20T22:49:30.038Z,7.22
2023-02-20T22:52:14.855Z,6.25
2023-02-20T22:55:05.273Z,6.10
2023-02-20T22:57:51.280Z,6.68
2023-02-20T23:00:36.125Z,6.63
2023-02-20T23:03:21.455Z,7.15
2023-02-20T23:06:16.839Z,6.82
2023-02-20T23:09:03.108Z,6.68
2023-02-20T23:11:51.280Z,7.32
2023-02-20T23:14:36.118Z,6.70
2023-02-20T23:17:34.433Z,7.40
2023-02-20T23:20:20.888Z,7.50
2023-02-20T23:23:05.846Z,6.03
2023-02-20T23:25:50.700Z,6.45
2023-02-20T23:28:37.434Z,6.65
2023-02-20T23:31:23.421Z,7.03
2023-02-20T23:34:08.571Z,8.10
2023-02-20T23:36:53.985Z,7.53
2023-02-20T23:39:38.785Z,7.10
2023-02-20T23:42:23.997Z,8.38
2023-02-20T23:45:08.982Z,8.07
2023-02-20T23:47:54.055Z,8.43
2023-02-20T23:50:39.176Z,9.57
2023-02-20T23:53:24.203Z,9.55
2023-02-20T23:56:09.470Z,8.30
2023-02-20T23:58:54.361Z,9.48
